createdAt,value
2023-04-18T00:01:40.230Z,11.50
2023-04-18T00:04:09.935Z,11.40
2023-04-18T00:06:38.308Z,11.50
2023-04-18T00:09:06.704Z,11.50
2023-04-18T00:11:36.190Z,11.40
2023-04-18T00:14:04.414Z,11.40
2023-04-18T00:16:33.108Z,11.50
2023-04-18T00:19:04.546Z,11.50
2023-04-18T00:21:33.055Z,11.50
2023-04-18T00:24:03.839Z,11.50
2023-04-18T00:26:32.170Z,11.20
2023-04-18T00:29:05.284Z,11.50
2023-04-18T00:31:33.504Z,11.50
2023-04-18T00:34:01.714Z,11.50
2023-04-18T00:36:29.845Z,11.50
2023-04-18T00:38:57.979Z,11.50
2023-04-18T00:41:28.658Z,11.50
2023-04-18T00:43:59.236Z,11.50
2023-04-18T00:46:31.130Z,11.50
2023-04-18T00:48:59.564Z,11.50
2023-04-18T00:51:29.913Z,11.50
2023-04-18T00:54:00.545Z,11.50
2023-04-18T00:56:31.077Z,11.50
2023-04-18T00:59:00.332Z,11.40
2023-04-18T01:01:33.651Z,11.40
2023-04-18T01:04:02.105Z,11.40
2023-04-18T01:06:32.519Z,11.30
2023-04-18T01:09:02.182Z,11.30
2023-04-18T01:11:32.391Z,11.30
2023-04-18T01:14:01.795Z,11.30
2023-04-18T01:16:33.244Z,11.40
2023-04-18T01:19:02.009Z,11.40
2023-04-18T01:21:31.399Z,11.40
2023-04-18T01:24:07.642Z,11.30
2023-04-18T01:26:36.045Z,11.30
2023-04-18T01:29:06.844Z,11.30
2023-04-18T01:31:37.220Z,11.30
2023-04-18T01:34:06.212Z,11.30
2023-04-18T01:36:39.440Z,11.20
2023-04-18T01:39:09.348Z,11.20
2023-04-18T01:41:39.915Z,11.20
2023-04-18T01:44:08.048Z,11.20
2023-04-18T01:46:36.504Z,11.20
2023-04-18T01:49:07.580Z,11.20
2023-04-18T01:51:35.680Z,11.20
2023-04-18T01:54:03.785Z,11.10
2023-04-18T01:56:33.443Z,11.10
2023-04-18T01:59:02.833Z,11.10
2023-04-18T02:01:31.029Z,11.10
2023-04-18T02:04:00.397Z,11.10
2023-04-18T02:06:28.602Z,11.20
2023-04-18T02:08:56.730Z,11.20
2023-04-18T02:11:27.193Z,11.30
2023-04-18T02:13:59.641Z,11.30
2023-04-18T02:16:30.497Z,11.30
2023-04-18T02:18:58.693Z,11.30
2023-04-18T02:21:26.982Z,11.30
2023-04-18T02:23:55.117Z,11.00
2023-04-18T02:26:23.436Z,11.20
2023-04-18T02:28:51.807Z,11.20
2023-04-18T02:31:21.346Z,11.20
2023-04-18T02:33:49.530Z,11.20
2023-04-18T02:36:17.642Z,11.30
2023-04-18T02:38:45.997Z,10.90
2023-04-18T02:41:17.446Z,11.20
2023-04-18T02:43:45.709Z,11.20
2023-04-18T02:46:16.546Z,11.30
2023-04-18T02:48:49.258Z,11.20
2023-04-18T02:51:19.993Z,11.20
2023-04-18T02:53:48.275Z,11.20
2023-04-18T02:56:18.848Z,11.20
2023-04-18T02:59:25.414Z,11.10
2023-04-18T03:02:13.867Z,11.10
2023-04-18T03:04:51.033Z,11.10
2023-04-18T03:07:21.810Z,11.10
2023-04-18T03:09:51.728Z,11.00
2023-04-18T03:12:27.004Z,11.00
2023-04-18T03:14:55.253Z,11.00
2023-04-18T03:17:25.790Z,10.90
2023-04-18T03:19:55.987Z,10.90
2023-04-18T03:22:25.334Z,10.90
2023-04-18T03:25:01.043Z,10.90
2023-04-18T03:27:51.845Z,10.90
2023-04-18T03:30:22.238Z,10.90
2023-04-18T03:32:56.383Z,10.80
2023-04-18T03:35:26.223Z,10.80
2023-04-18T03:37:57.540Z,10.80
2023-04-18T03:40:29.652Z,10.80
2023-04-18T03:43:03.130Z,10.80
2023-04-18T03:45:31.673Z,10.80
2023-04-18T03:47:59.954Z,10.80
2023-04-18T03:50:29.731Z,10.80
2023-04-18T03:52:59.098Z,10.80
2023-04-18T03:55:33.891Z,10.80
2023-04-18T03:58:03.438Z,10.80
2023-04-18T04:00:32.646Z,10.80
2023-04-18T04:03:07.532Z,10.80
2023-04-18T04:05:39.717Z,10.70
2023-04-18T04:08:08.002Z,10.60
2023-04-18T04:10:38.521Z,10.60
2023-04-18T04:13:06.684Z,10.60
2023-04-18T04:15:38.543Z,10.60
2023-04-18T04:18:10.723Z,10.50
2023-04-18T04:20:44.982Z,10.50
2023-04-18T04:23:27.900Z,10.50
2023-04-18T04:25:58.664Z,10.40
2023-04-18T04:28:46.479Z,10.40
2023-04-18T04:31:22.218Z,10.40
2023-04-18T04:33:51.838Z,10.40
2023-04-18T04:36:43.164Z,10.40
2023-04-18T04:39:13.916Z,10.40
2023-04-18T04:42:04.398Z,10.40
2023-04-18T04:44:41.683Z,10.40
2023-04-18T04:47:12.893Z,10.30
2023-04-18T04:49:41.308Z,10.30
2023-04-18T04:52:10.852Z,10.30
2023-04-18T04:54:38.925Z,10.30
2023-04-18T04:57:09.423Z,10.30
2023-04-18T04:59:37.787Z,10.30
2023-04-18T05:02:07.161Z,10.10
2023-04-18T05:04:35.573Z,10.30
2023-04-18T05:07:03.833Z,10.30
2023-04-18T05:09:33.391Z,10.20
2023-04-18T05:12:01.893Z,10.20
2023-04-18T05:14:30.957Z,10.20
2023-04-18T05:16:59.238Z,10.20
2023-04-18T05:19:27.674Z,10.30
2023-04-18T05:21:56.458Z,10.30
2023-04-18T05:24:24.575Z,10.40
2023-04-18T05:26:54.245Z,10.40
2023-04-18T05:29:24.791Z,10.40
2023-04-18T05:31:55.346Z,10.40
2023-04-18T05:34:25.960Z,10.40
2023-04-18T05:36:54.276Z,10.40
2023-04-18T05:39:22.362Z,10.40
2023-04-18T05:41:54.015Z,10.40
2023-04-18T05:44:24.099Z,10.30
2023-04-18T05:46:52.364Z,10.30
2023-04-18T05:49:20.675Z,10.30
2023-04-18T05:51:49.809Z,10.30
2023-04-18T05:54:18.006Z,10.30
2023-04-18T05:56:46.456Z,10.20
2023-04-18T05:59:28.912Z,10.20
2023-04-18T06:02:23.734Z,10.20
2023-04-18T06:05:41.175Z,10.10
2023-04-18T06:08:15.031Z,10.30
2023-04-18T06:30:35.242Z,10.50
2023-04-18T06:34:29.977Z,10.60
2023-04-18T06:40:21.402Z,10.60
2023-04-18T06:42:49.581Z,10.50
2023-04-18T06:45:22.129Z,10.80
2023-04-18T06:48:08.318Z,10.50
2023-04-18T06:50:50.939Z,10.50
2023-04-18T06:53:25.292Z,10.50
2023-04-18T06:55:58.783Z,10.50
2023-04-18T06:58:34.753Z,10.60
2023-04-18T07:01:13.165Z,10.60
2023-04-18T07:03:53.535Z,10.60
2023-04-18T07:06:26.563Z,10.60
2023-04-18T07:09:05.941Z,10.70
2023-04-18T07:11:46.443Z,10.70
2023-04-18T07:14:34.479Z,10.90
2023-04-18T07:17:09.449Z,10.60
2023-04-18T07:19:54.405Z,10.60
2023-04-18T07:22:27.761Z,10.70
2023-04-18T07:25:07.914Z,10.70
2023-04-18T07:27:46.074Z,10.70
2023-04-18T07:30:25.097Z,10.70
2023-04-18T07:33:06.858Z,10.70
2023-04-18T07:35:48.810Z,10.70
2023-04-18T07:38:29.640Z,10.70
2023-04-18T07:41:09.452Z,10.60
2023-04-18T07:43:43.294Z,10.70
2023-04-18T07:46:26.757Z,10.70
2023-04-18T07:49:07.045Z,10.50
2023-04-18T07:51:45.298Z,10.70
2023-04-18T07:54:24.079Z,10.70
2023-04-18T07:57:03.675Z,10.90
2023-04-18T07:59:34.910Z,10.90
2023-04-18T08:02:11.735Z,10.90
2023-04-18T08:04:44.828Z,10.70
2023-04-18T08:07:19.492Z,10.90
2023-04-18T08:10:03.069Z,10.90
2023-04-18T08:12:46.131Z,11.00
2023-04-18T08:15:17.206Z,11.10
2023-04-18T08:17:54.647Z,11.10
2023-04-18T08:20:39.042Z,11.10
2023-04-18T08:23:18.444Z,11.20
2023-04-18T08:25:49.818Z,11.20
2023-04-18T08:28:29.932Z,11.20
2023-04-18T08:31:03.018Z,11.20
2023-04-18T08:33:35.989Z,11.30
2023-04-18T08:36:14.579Z,11.20
2023-04-18T08:38:53.484Z,11.30
2023-04-18T08:44:17.585Z,11.20
2023-04-18T08:46:56.079Z,11.20
2023-04-18T08:49:33.290Z,11.30
2023-04-18T08:52:08.259Z,11.30
2023-04-18T08:54:39.355Z,11.40
2023-04-18T08:57:08.756Z,11.50
2023-04-18T08:59:46.709Z,11.60
2023-04-18T09:02:19.492Z,11.70
2023-04-18T09:04:52.747Z,11.70
2023-04-18T09:07:28.752Z,11.70
2023-04-18T09:09:59.155Z,11.80
2023-04-18T09:12:31.981Z,11.90
2023-04-18T09:15:31.750Z,12.00
2023-04-18T09:18:25.097Z,12.10
2023-04-18T09:21:05.149Z,11.90
2023-04-18T09:23:47.028Z,12.20
2023-04-18T09:26:39.753Z,12.20
2023-04-18T09:29:25.026Z,12.10
2023-04-18T09:32:18.525Z,12.10
2023-04-18T09:35:09.067Z,12.30
2023-04-18T09:37:46.459Z,12.30
2023-04-18T09:43:19.968Z,12.20
2023-04-18T09:45:55.585Z,12.10
2023-04-18T09:48:45.433Z,12.00
2023-04-18T09:51:24.260Z,12.00
2023-04-18T09:53:58.937Z,12.00
2023-04-18T09:56:32.113Z,12.00
2023-04-18T09:59:21.061Z,12.00
2023-04-18T10:02:02.949Z,12.00
2023-04-18T10:05:33.939Z,12.10
2023-04-18T10:08:28.458Z,12.00
2023-04-18T10:11:25.863Z,12.20
2023-04-18T10:14:19.320Z,12.20
2023-04-18T10:17:00.065Z,12.20
2023-04-18T10:19:53.817Z,12.10
2023-04-18T10:22:30.878Z,12.10
2023-04-18T10:25:04.819Z,12.00
2023-04-18T10:28:07.291Z,12.10
2023-04-18T10:31:03.032Z,12.10
2023-04-18T10:33:42.861Z,12.00
2023-04-18T10:36:23.125Z,12.10
2023-04-18T10:39:00.838Z,12.00
2023-04-18T10:41:30.742Z,12.10
2023-04-18T10:44:35.697Z,12.10
2023-04-18T10:47:23.749Z,12.10
2023-04-18T10:50:01.625Z,12.00
2023-04-18T10:52:47.517Z,12.00
2023-04-18T10:55:34.177Z,12.00
2023-04-18T10:58:19.167Z,12.10
2023-04-18T11:01:23.055Z,12.20
2023-04-18T11:04:06.961Z,12.20
2023-04-18T11:06:57.882Z,12.20
2023-04-18T11:09:46.091Z,12.20
2023-04-18T11:12:50.212Z,12.30
2023-04-18T11:15:47.738Z,12.10
2023-04-18T11:18:27.780Z,12.30
2023-04-18T11:21:09.855Z,12.30
2023-04-18T11:23:49.875Z,12.30
2023-04-18T11:30:38.031Z,12.10
2023-04-18T12:11:45.574Z,12.30
2023-04-18T12:14:33.713Z,12.20
2023-04-18T12:17:13.170Z,12.40
2023-04-18T12:27:16.462Z,12.40
2023-04-18T12:36:00.209Z,12.50
2023-04-18T12:41:42.898Z,12.80
2023-04-18T12:44:13.595Z,12.70
2023-04-18T12:46:59.771Z,12.70
2023-04-18T12:49:42.662Z,12.80
2023-04-18T13:45:13.247Z,12.60
2023-04-18T13:47:53.450Z,12.70
2023-04-18T15:02:58.361Z,13.20
2023-04-18T15:05:46.024Z,13.20
2023-04-18T15:08:17.796Z,13.30
2023-04-18T15:10:49.312Z,13.30
2023-04-18T15:13:18.287Z,13.20
2023-04-18T15:16:09.405Z,13.20
2023-04-18T15:18:43.857Z,13.00
2023-04-18T15:21:31.304Z,13.10
2023-04-18T16:04:42.380Z,13.10
2023-04-18T16:07:16.554Z,13.10
2023-04-18T16:09:45.209Z,13.20
2023-04-18T16:12:16.548Z,13.20
2023-04-18T16:18:55.843Z,13.40
2023-04-18T16:21:57.600Z,13.10
2023-04-18T16:24:27.837Z,13.30
2023-04-18T16:27:06.997Z,13.20
2023-04-18T16:29:37.355Z,13.20
2023-04-18T16:32:08.842Z,13.10
2023-04-18T16:34:37.976Z,13.20
2023-04-18T16:37:13.960Z,13.20
2023-04-18T16:40:06.264Z,13.20
2023-04-18T16:42:37.954Z,13.20
2023-04-18T16:45:13.865Z,13.30
2023-04-18T16:47:43.755Z,13.30
2023-04-18T16:50:39.626Z,13.30
2023-04-18T16:59:32.346Z,13.30
2023-04-18T17:02:04.258Z,13.30
2023-04-18T17:04:34.357Z,13.30
2023-04-18T17:07:06.102Z,13.20
2023-04-18T17:13:04.088Z,12.90
2023-04-18T17:15:37.402Z,13.00
2023-04-18T17:18:14.164Z,13.00
2023-04-18T17:24:04.483Z,12.80
2023-04-18T17:30:16.570Z,13.00
2023-04-18T17:42:51.514Z,12.90
2023-04-18T17:49:49.205Z,12.90
2023-04-18T17:52:31.187Z,12.90
2023-04-18T17:55:23.297Z,13.00
2023-04-18T17:58:00.119Z,12.80
2023-04-18T18:00:31.736Z,12.80
2023-04-18T18:03:12.507Z,12.60
2023-04-18T18:09:56.265Z,12.80
2023-04-18T18:12:44.002Z,12.80
2023-04-18T18:15:55.830Z,12.80
2023-04-18T18:18:58.819Z,12.80
2023-04-18T18:21:34.042Z,12.70
2023-04-18T18:24:07.666Z,12.80
2023-04-18T18:26:55.452Z,12.90
2023-04-18T18:29:44.092Z,12.80
2023-04-18T18:32:23.159Z,12.90
2023-04-18T18:35:08.271Z,12.90
2023-04-18T18:37:36.890Z,12.90
2023-04-18T18:40:07.422Z,12.90
2023-04-18T18:42:46.838Z,12.90
2023-04-18T18:45:15.842Z,13.00
2023-04-18T18:47:47.384Z,12.90
2023-04-18T18:50:25.982Z,12.90
2023-04-18T18:53:02.961Z,13.00
2023-04-18T18:55:47.701Z,13.00
2023-04-18T18:58:47.953Z,13.10
2023-04-18T19:01:41.146Z,13.00
2023-04-18T19:04:14.398Z,13.10
2023-04-18T19:06:56.625Z,13.00
2023-04-18T19:09:31.753Z,13.20
2023-04-18T19:12:01.358Z,13.00
2023-04-18T19:14:31.560Z,13.00
2023-04-18T19:17:12.161Z,13.00
2023-04-18T19:19:43.678Z,12.90
2023-04-18T19:22:13.497Z,13.00
2023-04-18T19:24:44.881Z,12.90
2023-04-18T19:27:13.374Z,13.00
2023-04-18T19:30:20.072Z,12.90
2023-04-18T19:32:52.888Z,13.00
2023-04-18T19:35:24.091Z,13.00
2023-04-18T19:37:56.112Z,13.00
2023-04-18T19:40:28.057Z,12.90
2023-04-18T19:43:05.378Z,12.90
2023-04-18T19:46:05.109Z,12.70
2023-04-18T19:48:44.821Z,12.80
2023-04-18T19:51:24.440Z,12.90
2023-04-18T19:54:02.016Z,12.80
2023-04-18T19:56:34.195Z,12.80
2023-04-18T19:59:34.192Z,12.80
2023-04-18T20:02:06.237Z,13.00
2023-04-18T20:04:36.523Z,12.80
2023-04-18T20:07:05.038Z,12.70
2023-04-18T20:09:33.278Z,12.70
2023-04-18T20:12:02.114Z,12.70
2023-04-18T20:14:30.800Z,12.70
2023-04-18T20:17:00.135Z,12.70
2023-04-18T20:19:30.611Z,12.60
2023-04-18T20:22:02.289Z,12.60
2023-04-18T20:24:32.006Z,12.60
2023-04-18T20:27:01.929Z,12.60
2023-04-18T20:29:43.166Z,12.60
2023-04-18T20:32:13.192Z,12.70
2023-04-18T20:34:43.835Z,12.70
2023-04-18T20:37:16.196Z,12.70
2023-04-18T20:39:44.755Z,12.80
2023-04-18T20:42:15.905Z,12.70
2023-04-18T20:44:47.054Z,12.70
2023-04-18T20:47:16.100Z,12.70
2023-04-18T20:49:54.412Z,12.70
2023-04-18T20:52:23.416Z,12.70
2023-04-18T20:54:51.621Z,12.70
2023-04-18T20:57:20.169Z,12.70
2023-04-18T20:59:48.734Z,12.60
2023-04-18T21:02:29.724Z,12.60
2023-04-18T21:05:02.442Z,12.60
2023-04-18T21:07:33.874Z,12.60
2023-04-18T21:10:02.304Z,12.60
2023-04-18T21:12:33.185Z,12.60
2023-04-18T21:15:02.292Z,12.60
2023-04-18T21:17:33.491Z,12.70
2023-04-18T21:20:03.513Z,12.60
2023-04-18T21:22:34.176Z,12.60
2023-04-18T21:25:07.100Z,12.60
2023-04-18T21:27:39.380Z,12.60
2023-04-18T21:30:10.377Z,12.60
2023-04-18T21:32:41.254Z,12.50
2023-04-18T21:35:19.358Z,12.60
2023-04-18T21:37:52.864Z,12.60
2023-04-18T21:40:30.714Z,12.50
2023-04-18T21:43:13.392Z,12.60
2023-04-18T21:45:42.387Z,12.60
2023-04-18T21:48:13.587Z,12.30
2023-04-18T21:50:55.407Z,12.50
2023-04-18T21:53:31.412Z,12.50
2023-04-18T21:55:59.835Z,12.50
2023-04-18T21:58:28.393Z,12.50
2023-04-18T22:01:13.905Z,12.50
2023-04-18T22:03:47.976Z,12.50
2023-04-18T22:06:18.215Z,12.50
2023-04-18T22:08:46.769Z,12.50
2023-04-18T22:11:18.823Z,12.50
2023-04-18T22:13:47.860Z,12.50
2023-04-18T22:16:23.151Z,12.50
2023-04-18T22:18:51.838Z,12.40
2023-04-18T22:21:21.710Z,12.40
2023-04-18T22:23:50.084Z,12.40
2023-04-18T22:26:18.669Z,12.40
2023-04-18T22:28:48.577Z,12.50
2023-04-18T22:31:25.499Z,12.40
2023-04-18T22:33:54.300Z,12.50
2023-04-18T22:36:27.862Z,12.40
2023-04-18T22:38:59.050Z,12.50
2023-04-18T22:41:28.181Z,12.40
2023-04-18T22:44:00.007Z,12.40
2023-04-18T22:46:28.713Z,12.40
2023-04-18T22:49:03.416Z,12.40
2023-04-18T22:51:34.278Z,12.40
2023-04-18T22:54:03.137Z,12.40
2023-04-18T22:56:31.697Z,12.40
2023-04-18T22:59:03.075Z,12.40
2023-04-18T23:01:40.756Z,12.50
2023-04-18T23:04:20.427Z,12.40
2023-04-18T23:06:53.703Z,12.50
2023-04-18T23:09:22.177Z,12.50
2023-04-18T23:11:54.812Z,12.40
2023-04-18T23:14:23.617Z,12.50
2023-04-18T23:16:52.865Z,12.40
2023-04-18T23:19:27.879Z,12.50
2023-04-18T23:22:03.199Z,12.50
2023-04-18T23:24:32.636Z,12.40
2023-04-18T23:27:04.209Z,12.50
2023-04-18T23:29:39.195Z,12.50
2023-04-18T23:32:08.298Z,12.50
2023-04-18T23:34:37.089Z,12.50
2023-04-18T23:37:07.308Z,12.50
2023-04-18T23:39:35.909Z,12.50
2023-04-18T23:42:04.497Z,12.50
2023-04-18T23:44:44.517Z,12.40
2023-04-18T23:47:51.890Z,12.40
2023-04-18T23:50:20.793Z,12.30
2023-04-18T23:52:51.142Z,12.30
2023-04-18T23:55:20.994Z,12.30
2023-04-18T23:57:54.720Z,12.30
